Salty, Texas
Current Conditions -  °F | °C
As of 4:35 PM on Friday 28 Nov 2014 (Local Time) from KT35 Reporting Station
Clear Clear  
Wind Chill: 71°   Ceiling: Unl
Heat Index: 71°   Visibility: 10mi
Dew Point: 50°   Wind: 13mph
Humidity: 48%   Direction: 200°SSW
Pressure: 30.11"   Gusts: 18mph
Location:  30.6499°N, 96.9973°W
Report Text: KT35 282235Z AUTO 20011G16KT 10SM CLR 22/10 A3011 RMK AO2 T02160102
Loading
Personal Weather Stations






























Interactive Weather Map New forecast layout! Learn more

10-Day Weather Forecast

Advertisements
Track Severe Weather on mobile